sensor_id;sensor_type;location;lat;lon;timestamp;P1;durP1;ratioP1;P2;durP2;ratioP2
78290;SDS011;67543;45.494;9.100;2023-03-13T06:37:53;7.10;;;5.07;;
78290;SDS011;67543;45.494;9.100;2023-03-13T06:40:19;7.63;;;5.32;;
78290;SDS011;67543;45.494;9.100;2023-03-13T06:42:44;8.07;;;4.60;;
78290;SDS011;67543;45.494;9.100;2023-03-13T06:45:11;8.82;;;5.45;;
78290;SDS011;67543;45.494;9.100;2023-03-13T06:47:36;12.40;;;5.38;;
78290;SDS011;67543;45.494;9.100;2023-03-13T06:50:01;8.93;;;6.10;;
78290;SDS011;67543;45.494;9.100;2023-03-13T06:52:27;7.93;;;5.00;;
78290;SDS011;67543;45.494;9.100;2023-03-13T06:54:52;11.55;;;5.40;;
78290;SDS011;67543;45.494;9.100;2023-03-13T06:57:18;8.63;;;5.40;;
78290;SDS011;67543;45.494;9.100;2023-03-13T06:59:43;9.45;;;5.55;;
78290;SDS011;67543;45.494;9.100;2023-03-13T07:02:10;9.20;;;5.80;;
78290;SDS011;67543;45.494;9.100;2023-03-13T07:04:36;9.88;;;5.85;;
78290;SDS011;67543;45.494;9.100;2023-03-13T07:07:01;8.77;;;4.95;;
78290;SDS011;67543;45.494;9.100;2023-03-13T07:09:27;7.72;;;4.65;;
78290;SDS011;67543;45.494;9.100;2023-03-13T07:11:52;7.53;;;4.30;;
78290;SDS011;67543;45.494;9.100;2023-03-13T07:14:17;8.38;;;5.03;;
78290;SDS011;67543;45.494;9.100;2023-03-13T07:16:43;10.50;;;4.40;;
78290;SDS011;67543;45.494;9.100;2023-03-13T07:19:09;7.88;;;4.75;;
78290;SDS011;67543;45.494;9.100;2023-03-13T07:21:34;7.07;;;4.38;;
78290;SDS011;67543;45.494;9.100;2023-03-13T07:24:00;8.35;;;4.28;;
78290;SDS011;67543;45.494;9.100;2023-03-13T07:26:25;13.20;;;4.30;;
78290;SDS011;67543;45.494;9.100;2023-03-13T07:28:50;6.95;;;3.92;;
78290;SDS011;67543;45.494;9.100;2023-03-13T07:31:17;8.57;;;3.63;;
78290;SDS011;67543;45.494;9.100;2023-03-13T07:33:44;8.13;;;3.00;;
78290;SDS011;67543;45.494;9.100;2023-03-13T07:36:09;7.82;;;3.63;;
78290;SDS011;67543;45.494;9.100;2023-03-13T07:38:35;6.85;;;3.45;;
78290;SDS011;67543;45.494;9.100;2023-03-13T07:41:01;7.80;;;3.05;;
78290;SDS011;67543;45.494;9.100;2023-03-13T07:43:26;12.85;;;3.80;;
78290;SDS011;67543;45.494;9.100;2023-03-13T07:45:57;8.77;;;3.83;;
78290;SDS011;67543;45.494;9.100;2023-03-13T07:48:25;6.53;;;4.57;;
78290;SDS011;67543;45.494;9.100;2023-03-13T07:50:53;7.85;;;3.47;;
78290;SDS011;67543;45.494;9.100;2023-03-13T07:53:19;7.68;;;3.78;;
78290;SDS011;67543;45.494;9.100;2023-03-13T07:55:54;7.18;;;4.07;;
78290;SDS011;67543;45.494;9.100;2023-03-13T07:58:22;12.23;;;4.85;;
78290;SDS011;67543;45.494;9.100;2023-03-13T08:00:48;8.60;;;4.90;;
78290;SDS011;67543;45.494;9.100;2023-03-13T08:03:13;7.20;;;4.38;;
78290;SDS011;67543;45.494;9.100;2023-03-13T08:05:39;6.30;;;4.32;;
78290;SDS011;67543;45.494;9.100;2023-03-13T08:08:05;7.93;;;4.45;;
78290;SDS011;67543;45.494;9.100;2023-03-13T08:10:30;8.32;;;4.60;;
78290;SDS011;67543;45.494;9.100;2023-03-13T08:12:56;5.45;;;4.28;;
78290;SDS011;67543;45.494;9.100;2023-03-13T08:15:21;10.45;;;4.28;;
78290;SDS011;67543;45.494;9.100;2023-03-13T08:17:50;10.82;;;4.78;;
78290;SDS011;67543;45.494;9.100;2023-03-13T08:20:16;12.55;;;4.38;;
78290;SDS011;67543;45.494;9.100;2023-03-13T08:22:43;9.35;;;4.20;;
78290;SDS011;67543;45.494;9.100;2023-03-13T08:25:10;7.88;;;4.60;;
78290;SDS011;67543;45.494;9.100;2023-03-13T08:27:36;6.47;;;4.43;;
78290;SDS011;67543;45.494;9.100;2023-03-13T08:30:01;10.18;;;5.25;;
78290;SDS011;67543;45.494;9.100;2023-03-13T08:32:27;8.63;;;4.68;;
78290;SDS011;67543;45.494;9.100;2023-03-13T08:34:52;7.68;;;4.15;;
78290;SDS011;67543;45.494;9.100;2023-03-13T08:37:18;9.82;;;3.80;;
78290;SDS011;67543;45.494;9.100;2023-03-13T08:39:43;6.35;;;4.57;;
78290;SDS011;67543;45.494;9.100;2023-03-13T08:42:10;6.97;;;4.20;;
78290;SDS011;67543;45.494;9.100;2023-03-13T08:44:38;6.97;;;3.70;;
78290;SDS011;67543;45.494;9.100;2023-03-13T08:47:05;5.93;;;3.80;;
78290;SDS011;67543;45.494;9.100;2023-03-13T08:49:31;5.30;;;3.42;;
78290;SDS011;67543;45.494;9.100;2023-03-13T08:51:56;6.05;;;3.63;;
78290;SDS011;67543;45.494;9.100;2023-03-13T08:54:21;5.82;;;3.33;;
78290;SDS011;67543;45.494;9.100;2023-03-13T08:56:47;7.53;;;4.32;;
78290;SDS011;67543;45.494;9.100;2023-03-13T08:59:12;9.80;;;4.03;;
78290;SDS011;67543;45.494;9.100;2023-03-13T09:01:39;8.68;;;3.75;;
78290;SDS011;67543;45.494;9.100;2023-03-13T09:04:05;5.82;;;3.40;;
78290;SDS011;67543;45.494;9.100;2023-03-13T09:06:32;6.13;;;3.67;;
78290;SDS011;67543;45.494;9.100;2023-03-13T09:08:58;8.98;;;3.95;;
78290;SDS011;67543;45.494;9.100;2023-03-13T09:11:23;10.98;;;4.13;;
78290;SDS011;67543;45.494;9.100;2023-03-13T09:13:49;6.18;;;4.53;;
78290;SDS011;67543;45.494;9.100;2023-03-13T09:16:19;5.43;;;4.18;;
78290;SDS011;67543;45.494;9.100;2023-03-13T09:18:46;9.20;;;3.88;;
78290;SDS011;67543;45.494;9.100;2023-03-13T09:21:13;9.20;;;4.57;;
78290;SDS011;67543;45.494;9.100;2023-03-13T09:23:40;9.85;;;4.80;;
78290;SDS011;67543;45.494;9.100;2023-03-13T09:26:06;5.82;;;4.13;;
78290;SDS011;67543;45.494;9.100;2023-03-13T09:28:32;10.13;;;3.65;;
78290;SDS011;67543;45.494;9.100;2023-03-13T09:33:32;7.50;;;4.35;;
78290;SDS011;67543;45.494;9.100;2023-03-13T09:35:58;7.85;;;4.13;;
78290;SDS011;67543;45.494;9.100;2023-03-13T09:38:23;9.90;;;4.53;;
78290;SDS011;67543;45.494;9.100;2023-03-13T09:40:49;8.13;;;4.93;;
78290;SDS011;67543;45.494;9.100;2023-03-13T09:43:24;15.98;;;10.93;;
78290;SDS011;67543;45.494;9.100;2023-03-13T09:45:57;8.13;;;4.30;;
78290;SDS011;67543;45.494;9.100;2023-03-13T09:48:30;6.90;;;4.38;;
78290;SDS011;67543;45.494;9.100;2023-03-13T09:56:27;8.35;;;6.70;;
78290;SDS011;67543;45.494;9.100;2023-03-13T09:58:57;8.98;;;4.97;;
78290;SDS011;67543;45.494;9.100;2023-03-13T10:01:34;10.48;;;5.50;;
78290;SDS011;67543;45.494;9.100;2023-03-13T10:04:04;12.32;;;5.43;;
78290;SDS011;67543;45.494;9.100;2023-03-13T10:06:34;10.15;;;4.95;;
78290;SDS011;67543;45.494;9.100;2023-03-13T10:09:07;10.85;;;5.47;;
78290;SDS011;67543;45.494;9.100;2023-03-13T10:14:18;10.70;;;4.68;;
78290;SDS011;67543;45.494;9.100;2023-03-13T10:16:52;8.27;;;5.15;;
78290;SDS011;67543;45.494;9.100;2023-03-13T10:19:30;11.77;;;5.03;;
78290;SDS011;67543;45.494;9.100;2023-03-13T10:22:13;8.85;;;4.10;;
78290;SDS011;67543;45.494;9.100;2023-03-13T10:24:45;7.20;;;4.85;;
78290;SDS011;67543;45.494;9.100;2023-03-13T10:27:12;7.30;;;4.80;;
78290;SDS011;67543;45.494;9.100;2023-03-13T10:29:38;11.77;;;4.45;;
78290;SDS011;67543;45.494;9.100;2023-03-13T10:32:06;6.53;;;4.90;;
78290;SDS011;67543;45.494;9.100;2023-03-13T10:37:20;8.20;;;4.78;;
78290;SDS011;67543;45.494;9.100;2023-03-13T10:39:52;5.78;;;4.45;;
78290;SDS011;67543;45.494;9.100;2023-03-13T10:42:30;6.25;;;4.32;;
78290;SDS011;67543;45.494;9.100;2023-03-13T10:44:58;6.53;;;4.22;;
78290;SDS011;67543;45.494;9.100;2023-03-13T10:47:24;6.65;;;4.70;;
78290;SDS011;67543;45.494;9.100;2023-03-13T10:49:50;9.93;;;5.50;;
78290;SDS011;67543;45.494;9.100;2023-03-13T10:52:53;11.65;;;4.70;;
78290;SDS011;67543;45.494;9.100;2023-03-13T10:55:15;7.13;;;5.20;;
78290;SDS011;67543;45.494;9.100;2023-03-13T11:00:29;10.93;;;4.97;;
78290;SDS011;67543;45.494;9.100;2023-03-13T11:02:55;7.15;;;4.80;;
78290;SDS011;67543;45.494;9.100;2023-03-13T11:05:36;7.00;;;4.88;;
78290;SDS011;67543;45.494;9.100;2023-03-13T11:08:22;8.38;;;4.43;;
78290;SDS011;67543;45.494;9.100;2023-03-13T11:10:53;8.65;;;5.00;;
78290;SDS011;67543;45.494;9.100;2023-03-13T11:13:33;10.23;;;4.60;;
78290;SDS011;67543;45.494;9.100;2023-03-13T11:16:22;13.27;;;5.57;;
78290;SDS011;67543;45.494;9.100;2023-03-13T11:19:08;13.00;;;5.28;;
78290;SDS011;67543;45.494;9.100;2023-03-13T11:22:03;7.47;;;5.00;;
78290;SDS011;67543;45.494;9.100;2023-03-13T11:24:49;7.65;;;4.43;;
78290;SDS011;67543;45.494;9.100;2023-03-13T11:27:28;5.75;;;4.78;;
78290;SDS011;67543;45.494;9.100;2023-03-13T11:30:18;10.35;;;5.10;;
78290;SDS011;67543;45.494;9.100;2023-03-13T11:33:04;9.50;;;6.20;;
78290;SDS011;67543;45.494;9.100;2023-03-13T11:35:38;12.25;;;5.68;;
78290;SDS011;67543;45.494;9.100;2023-03-13T11:38:12;9.27;;;5.20;;
78290;SDS011;67543;45.494;9.100;2023-03-13T11:43:38;7.00;;;4.28;;
78290;SDS011;67543;45.494;9.100;2023-03-13T11:51:59;13.50;;;5.70;;
78290;SDS011;67543;45.494;9.100;2023-03-13T11:59:53;9.68;;;5.65;;
78290;SDS011;67543;45.494;9.100;2023-03-13T12:05:57;8.32;;;5.13;;
78290;SDS011;67543;45.494;9.100;2023-03-13T12:13:43;7.32;;;5.07;;
78290;SDS011;67543;45.494;9.100;2023-03-13T12:16:18;11.32;;;5.72;;
78290;SDS011;67543;45.494;9.100;2023-03-13T12:18:45;10.13;;;6.28;;
78290;SDS011;67543;45.494;9.100;2023-03-13T12:21:20;11.88;;;6.35;;
78290;SDS011;67543;45.494;9.100;2023-03-13T12:26:48;9.80;;;6.13;;
78290;SDS011;67543;45.494;9.100;2023-03-13T12:32:03;10.18;;;6.45;;
78290;SDS011;67543;45.494;9.100;2023-03-13T12:37:20;9.85;;;5.72;;
78290;SDS011;67543;45.494;9.100;2023-03-13T12:39:52;10.55;;;6.32;;
78290;SDS011;67543;45.494;9.100;2023-03-13T12:42:44;9.57;;;5.75;;
78290;SDS011;67543;45.494;9.100;2023-03-13T12:45:17;11.20;;;6.70;;
78290;SDS011;67543;45.494;9.100;2023-03-13T12:50:50;8.32;;;5.55;;
78290;SDS011;67543;45.494;9.100;2023-03-13T13:03:50;10.87;;;6.63;;
78290;SDS011;67543;45.494;9.100;2023-03-13T13:06:19;9.90;;;5.93;;
78290;SDS011;67543;45.494;9.100;2023-03-13T13:16:44;9.60;;;6.00;;
78290;SDS011;67543;45.494;9.100;2023-03-13T13:24:53;12.02;;;6.13;;
78290;SDS011;67543;45.494;9.100;2023-03-13T13:32:32;11.45;;;5.18;;
78290;SDS011;67543;45.494;9.100;2023-03-13T13:37:36;12.38;;;5.68;;
78290;SDS011;67543;45.494;9.100;2023-03-13T13:42:50;8.90;;;4.78;;
78290;SDS011;67543;45.494;9.100;2023-03-13T13:47:43;6.87;;;5.27;;
78290;SDS011;67543;45.494;9.100;2023-03-13T13:50:20;8.88;;;6.35;;
78290;SDS011;67543;45.494;9.100;2023-03-13T13:52:47;13.23;;;6.32;;
78290;SDS011;67543;45.494;9.100;2023-03-13T13:58:24;10.60;;;5.97;;
78290;SDS011;67543;45.494;9.100;2023-03-13T14:00:52;13.90;;;6.00;;
78290;SDS011;67543;45.494;9.100;2023-03-13T14:03:24;8.82;;;5.55;;
78290;SDS011;67543;45.494;9.100;2023-03-13T14:06:11;10.05;;;6.57;;
78290;SDS011;67543;45.494;9.100;2023-03-13T14:08:41;10.80;;;5.97;;
78290;SDS011;67543;45.494;9.100;2023-03-13T14:11:25;12.75;;;6.50;;
78290;SDS011;67543;45.494;9.100;2023-03-13T14:14:14;12.75;;;6.10;;
78290;SDS011;67543;45.494;9.100;2023-03-13T14:16:45;8.77;;;5.30;;
78290;SDS011;67543;45.494;9.100;2023-03-13T14:22:05;10.65;;;6.50;;
78290;SDS011;67543;45.494;9.100;2023-03-13T14:24:31;10.50;;;5.63;;
78290;SDS011;67543;45.494;9.100;2023-03-13T14:26:57;11.73;;;6.55;;
78290;SDS011;67543;45.494;9.100;2023-03-13T14:29:22;10.70;;;5.97;;
78290;SDS011;67543;45.494;9.100;2023-03-13T14:31:52;14.18;;;6.00;;
78290;SDS011;67543;45.494;9.100;2023-03-13T14:34:21;11.02;;;5.80;;
78290;SDS011;67543;45.494;9.100;2023-03-13T14:36:49;10.60;;;7.60;;
78290;SDS011;67543;45.494;9.100;2023-03-13T14:39:41;10.88;;;6.32;;
78290;SDS011;67543;45.494;9.100;2023-03-13T14:42:12;12.00;;;7.50;;
78290;SDS011;67543;45.494;9.100;2023-03-13T14:44:39;9.93;;;5.70;;
78290;SDS011;67543;45.494;9.100;2023-03-13T14:47:28;7.22;;;5.32;;
78290;SDS011;67543;45.494;9.100;2023-03-13T14:49:59;13.07;;;6.50;;
78290;SDS011;67543;45.494;9.100;2023-03-13T14:52:28;7.93;;;6.07;;
78290;SDS011;67543;45.494;9.100;2023-03-13T14:54:56;9.30;;;6.15;;
78290;SDS011;67543;45.494;9.100;2023-03-13T14:57:28;8.30;;;5.30;;
78290;SDS011;67543;45.494;9.100;2023-03-13T14:59:53;12.35;;;6.35;;
78290;SDS011;67543;45.494;9.100;2023-03-13T15:02:25;9.13;;;5.53;;
78290;SDS011;67543;45.494;9.100;2023-03-13T15:04:53;11.18;;;5.85;;
78290;SDS011;67543;45.494;9.100;2023-03-13T15:07:19;9.98;;;5.95;;
78290;SDS011;67543;45.494;9.100;2023-03-13T15:09:45;12.43;;;5.80;;
78290;SDS011;67543;45.494;9.100;2023-03-13T15:12:15;11.70;;;6.00;;
78290;SDS011;67543;45.494;9.100;2023-03-13T15:14:45;10.32;;;5.30;;
78290;SDS011;67543;45.494;9.100;2023-03-13T15:17:16;13.63;;;6.22;;
78290;SDS011;67543;45.494;9.100;2023-03-13T15:19:52;8.05;;;5.30;;
78290;SDS011;67543;45.494;9.100;2023-03-13T15:22:29;8.68;;;5.78;;
78290;SDS011;67543;45.494;9.100;2023-03-13T15:24:57;12.52;;;5.72;;
78290;SDS011;67543;45.494;9.100;2023-03-13T15:27:23;10.55;;;6.07;;
78290;SDS011;67543;45.494;9.100;2023-03-13T15:29:50;12.05;;;5.10;;
78290;SDS011;67543;45.494;9.100;2023-03-13T15:32:22;13.38;;;5.57;;
78290;SDS011;67543;45.494;9.100;2023-03-13T15:34:50;8.68;;;5.45;;
78290;SDS011;67543;45.494;9.100;2023-03-13T15:37:16;12.18;;;6.00;;
78290;SDS011;67543;45.494;9.100;2023-03-13T15:39:42;11.85;;;5.72;;
78290;SDS011;67543;45.494;9.100;2023-03-13T15:42:07;16.08;;;5.90;;
78290;SDS011;67543;45.494;9.100;2023-03-13T15:44:34;9.93;;;6.13;;
78290;SDS011;67543;45.494;9.100;2023-03-13T15:47:01;15.77;;;7.18;;
78290;SDS011;67543;45.494;9.100;2023-03-13T15:49:26;9.95;;;6.28;;
78290;SDS011;67543;45.494;9.100;2023-03-13T15:51:52;13.13;;;5.35;;
78290;SDS011;67543;45.494;9.100;2023-03-13T15:54:17;9.55;;;7.28;;
78290;SDS011;67543;45.494;9.100;2023-03-13T15:56:43;9.88;;;5.55;;
78290;SDS011;67543;45.494;9.100;2023-03-13T15:59:13;10.90;;;5.95;;
78290;SDS011;67543;45.494;9.100;2023-03-13T16:01:40;8.70;;;4.65;;
78290;SDS011;67543;45.494;9.100;2023-03-13T16:04:08;11.90;;;6.03;;
78290;SDS011;67543;45.494;9.100;2023-03-13T16:06:34;10.68;;;6.10;;
78290;SDS011;67543;45.494;9.100;2023-03-13T16:09:00;14.60;;;5.93;;
78290;SDS011;67543;45.494;9.100;2023-03-13T16:11:26;11.77;;;6.60;;
78290;SDS011;67543;45.494;9.100;2023-03-13T16:13:52;9.98;;;5.60;;
78290;SDS011;67543;45.494;9.100;2023-03-13T16:16:19;12.50;;;6.80;;
78290;SDS011;67543;45.494;9.100;2023-03-13T16:18:46;9.55;;;5.03;;
78290;SDS011;67543;45.494;9.100;2023-03-13T16:21:14;10.32;;;5.65;;
78290;SDS011;67543;45.494;9.100;2023-03-13T16:23:51;11.13;;;5.70;;
78290;SDS011;67543;45.494;9.100;2023-03-13T16:26:18;10.88;;;6.13;;
78290;SDS011;67543;45.494;9.100;2023-03-13T16:28:46;15.77;;;6.57;;
78290;SDS011;67543;45.494;9.100;2023-03-13T16:31:19;10.32;;;5.43;;
78290;SDS011;67543;45.494;9.100;2023-03-13T16:33:45;10.68;;;6.82;;
78290;SDS011;67543;45.494;9.100;2023-03-13T16:36:15;15.45;;;6.78;;
78290;SDS011;67543;45.494;9.100;2023-03-13T16:38:41;12.68;;;6.15;;
78290;SDS011;67543;45.494;9.100;2023-03-13T16:41:07;13.75;;;6.25;;
78290;SDS011;67543;45.494;9.100;2023-03-13T16:43:34;10.70;;;5.97;;
78290;SDS011;67543;45.494;9.100;2023-03-13T16:45:59;13.73;;;7.85;;
78290;SDS011;67543;45.494;9.100;2023-03-13T16:48:24;11.20;;;6.65;;
78290;SDS011;67543;45.494;9.100;2023-03-13T16:50:49;10.40;;;6.63;;
78290;SDS011;67543;45.494;9.100;2023-03-13T16:53:15;13.48;;;7.57;;
78290;SDS011;67543;45.494;9.100;2023-03-13T16:55:40;12.73;;;6.53;;
78290;SDS011;67543;45.494;9.100;2023-03-13T16:58:05;15.32;;;6.28;;
78290;SDS011;67543;45.494;9.100;2023-03-13T17:00:31;16.00;;;7.07;;
78290;SDS011;67543;45.494;9.100;2023-03-13T17:02:57;14.18;;;7.07;;
78290;SDS011;67543;45.494;9.100;2023-03-13T17:05:23;14.75;;;7.25;;
78290;SDS011;67543;45.494;9.100;2023-03-13T17:07:49;14.15;;;8.68;;
78290;SDS011;67543;45.494;9.100;2023-03-13T17:10:17;15.18;;;8.20;;
78290;SDS011;67543;45.494;9.100;2023-03-13T17:15:12;16.65;;;7.30;;
78290;SDS011;67543;45.494;9.100;2023-03-13T17:17:37;11.75;;;6.75;;
78290;SDS011;67543;45.494;9.100;2023-03-13T17:20:03;16.38;;;7.60;;
78290;SDS011;67543;45.494;9.100;2023-03-13T17:22:30;11.90;;;6.05;;
78290;SDS011;67543;45.494;9.100;2023-03-13T17:24:55;15.73;;;7.97;;
78290;SDS011;67543;45.494;9.100;2023-03-13T17:27:21;14.60;;;6.47;;
78290;SDS011;67543;45.494;9.100;2023-03-13T17:29:47;13.75;;;7.45;;
78290;SDS011;67543;45.494;9.100;2023-03-13T17:32:13;10.57;;;6.90;;
78290;SDS011;67543;45.494;9.100;2023-03-13T17:34:39;10.88;;;6.55;;
78290;SDS011;67543;45.494;9.100;2023-03-13T17:37:15;10.80;;;6.25;;
78290;SDS011;67543;45.494;9.100;2023-03-13T17:39:42;7.47;;;5.28;;
78290;SDS011;67543;45.494;9.100;2023-03-13T17:42:08;9.55;;;6.25;;
78290;SDS011;67543;45.494;9.100;2023-03-13T17:44:34;10.65;;;6.18;;
78290;SDS011;67543;45.494;9.100;2023-03-13T17:46:59;9.50;;;7.20;;
78290;SDS011;67543;45.494;9.100;2023-03-13T17:49:24;14.05;;;6.22;;
78290;SDS011;67543;45.494;9.100;2023-03-13T17:51:50;11.18;;;6.13;;
78290;SDS011;67543;45.494;9.100;2023-03-13T17:54:15;29.98;;;20.90;;
78290;SDS011;67543;45.494;9.100;2023-03-13T17:56:42;27.27;;;16.73;;
78290;SDS011;67543;45.494;9.100;2023-03-13T17:59:12;17.83;;;9.68;;
78290;SDS011;67543;45.494;9.100;2023-03-13T18:01:39;14.60;;;6.90;;
78290;SDS011;67543;45.494;9.100;2023-03-13T18:04:04;13.95;;;6.60;;
78290;SDS011;67543;45.494;9.100;2023-03-13T18:06:46;12.02;;;6.22;;
78290;SDS011;67543;45.494;9.100;2023-03-13T18:09:14;12.55;;;7.60;;
78290;SDS011;67543;45.494;9.100;2023-03-13T18:11:41;12.85;;;6.20;;
78290;SDS011;67543;45.494;9.100;2023-03-13T18:14:06;15.65;;;7.47;;
78290;SDS011;67543;45.494;9.100;2023-03-13T18:16:33;10.02;;;6.03;;
78290;SDS011;67543;45.494;9.100;2023-03-13T18:19:09;12.90;;;7.05;;
78290;SDS011;67543;45.494;9.100;2023-03-13T18:21:39;15.73;;;7.30;;
78290;SDS011;67543;45.494;9.100;2023-03-13T18:24:04;13.82;;;8.82;;
78290;SDS011;67543;45.494;9.100;2023-03-13T18:26:31;18.00;;;8.43;;
78290;SDS011;67543;45.494;9.100;2023-03-13T18:28:58;10.73;;;7.07;;
78290;SDS011;67543;45.494;9.100;2023-03-13T18:31:30;14.73;;;9.10;;
78290;SDS011;67543;45.494;9.100;2023-03-13T18:33:57;12.77;;;8.25;;
78290;SDS011;67543;45.494;9.100;2023-03-13T18:36:23;12.75;;;7.38;;
78290;SDS011;67543;45.494;9.100;2023-03-13T18:38:49;13.65;;;8.13;;
78290;SDS011;67543;45.494;9.100;2023-03-13T18:41:15;14.77;;;7.45;;
78290;SDS011;67543;45.494;9.100;2023-03-13T18:43:41;12.48;;;8.48;;
78290;SDS011;67543;45.494;9.100;2023-03-13T18:46:10;26.60;;;16.85;;
78290;SDS011;67543;45.494;9.100;2023-03-13T18:48:47;29.23;;;16.90;;
78290;SDS011;67543;45.494;9.100;2023-03-13T18:51:17;16.42;;;8.63;;
78290;SDS011;67543;45.494;9.100;2023-03-13T18:53:43;15.60;;;8.07;;
78290;SDS011;67543;45.494;9.100;2023-03-13T18:56:19;15.50;;;8.85;;
78290;SDS011;67543;45.494;9.100;2023-03-13T18:58:47;18.20;;;9.27;;
78290;SDS011;67543;45.494;9.100;2023-03-13T19:01:14;20.10;;;10.07;;
78290;SDS011;67543;45.494;9.100;2023-03-13T19:03:41;16.45;;;9.43;;
78290;SDS011;67543;45.494;9.100;2023-03-13T19:09:11;17.85;;;9.80;;
78290;SDS011;67543;45.494;9.100;2023-03-13T19:11:39;15.90;;;7.78;;
78290;SDS011;67543;45.494;9.100;2023-03-13T19:14:05;16.60;;;8.35;;
78290;SDS011;67543;45.494;9.100;2023-03-13T19:16:32;14.35;;;8.30;;
78290;SDS011;67543;45.494;9.100;2023-03-13T19:19:01;17.30;;;8.45;;
78290;SDS011;67543;45.494;9.100;2023-03-13T19:21:48;13.27;;;8.10;;
78290;SDS011;67543;45.494;9.100;2023-03-13T19:24:14;18.20;;;7.97;;
78290;SDS011;67543;45.494;9.100;2023-03-13T19:26:41;15.70;;;8.40;;
78290;SDS011;67543;45.494;9.100;2023-03-13T19:29:12;16.15;;;8.90;;
78290;SDS011;67543;45.494;9.100;2023-03-13T19:31:47;15.38;;;8.65;;
78290;SDS011;67543;45.494;9.100;2023-03-13T19:34:13;15.68;;;9.02;;
78290;SDS011;67543;45.494;9.100;2023-03-13T19:36:41;29.17;;;11.07;;
78290;SDS011;67543;45.494;9.100;2023-03-13T19:39:21;21.13;;;11.65;;
78290;SDS011;67543;45.494;9.100;2023-03-13T19:41:50;13.63;;;8.32;;
78290;SDS011;67543;45.494;9.100;2023-03-13T19:44:16;16.48;;;7.68;;
78290;SDS011;67543;45.494;9.100;2023-03-13T19:46:42;14.98;;;8.27;;
78290;SDS011;67543;45.494;9.100;2023-03-13T19:49:12;19.95;;;10.23;;
78290;SDS011;67543;45.494;9.100;2023-03-13T19:51:39;22.98;;;11.45;;
78290;SDS011;67543;45.494;9.100;2023-03-13T19:54:05;17.75;;;10.85;;
78290;SDS011;67543;45.494;9.100;2023-03-13T19:56:31;16.90;;;9.75;;
78290;SDS011;67543;45.494;9.100;2023-03-13T19:58:57;15.55;;;9.55;;
78290;SDS011;67543;45.494;9.100;2023-03-13T20:01:24;16.88;;;9.50;;
78290;SDS011;67543;45.494;9.100;2023-03-13T20:03:49;19.73;;;10.25;;
78290;SDS011;67543;45.494;9.100;2023-03-13T20:06:18;35.78;;;18.05;;
78290;SDS011;67543;45.494;9.100;2023-03-13T20:08:45;23.13;;;11.82;;
78290;SDS011;67543;45.494;9.100;2023-03-13T20:11:11;27.15;;;14.65;;
78290;SDS011;67543;45.494;9.100;2023-03-13T20:13:37;16.90;;;10.35;;
78290;SDS011;67543;45.494;9.100;2023-03-13T20:16:03;18.38;;;9.82;;
78290;SDS011;67543;45.494;9.100;2023-03-13T20:18:29;17.15;;;10.70;;
78290;SDS011;67543;45.494;9.100;2023-03-13T20:20:54;19.75;;;11.20;;
78290;SDS011;67543;45.494;9.100;2023-03-13T20:23:20;20.08;;;11.43;;
78290;SDS011;67543;45.494;9.100;2023-03-13T20:25:45;18.52;;;10.10;;
78290;SDS011;67543;45.494;9.100;2023-03-13T20:28:10;18.50;;;11.27;;
78290;SDS011;67543;45.494;9.100;2023-03-13T20:30:39;18.13;;;9.80;;
78290;SDS011;67543;45.494;9.100;2023-03-13T20:33:07;24.20;;;11.85;;
78290;SDS011;67543;45.494;9.100;2023-03-13T20:35:33;25.63;;;14.35;;
78290;SDS011;67543;45.494;9.100;2023-03-13T20:37:58;23.92;;;14.50;;
78290;SDS011;67543;45.494;9.100;2023-03-13T20:40:25;24.80;;;13.68;;
78290;SDS011;67543;45.494;9.100;2023-03-13T20:42:51;25.17;;;15.02;;
78290;SDS011;67543;45.494;9.100;2023-03-13T20:45:17;24.77;;;14.90;;
78290;SDS011;67543;45.494;9.100;2023-03-13T20:47:42;30.10;;;15.53;;
78290;SDS011;67543;45.494;9.100;2023-03-13T20:50:07;26.98;;;13.77;;
78290;SDS011;67543;45.494;9.100;2023-03-13T20:52:33;22.70;;;13.93;;
78290;SDS011;67543;45.494;9.100;2023-03-13T20:54:59;21.85;;;14.02;;
78290;SDS011;67543;45.494;9.100;2023-03-13T20:57:24;25.42;;;15.38;;
78290;SDS011;67543;45.494;9.100;2023-03-13T20:59:51;23.73;;;13.70;;
78290;SDS011;67543;45.494;9.100;2023-03-13T21:02:16;24.10;;;14.95;;
78290;SDS011;67543;45.494;9.100;2023-03-13T21:04:41;25.98;;;14.75;;
78290;SDS011;67543;45.494;9.100;2023-03-13T21:07:07;24.85;;;15.52;;
78290;SDS011;67543;45.494;9.100;2023-03-13T21:09:32;26.27;;;14.15;;
78290;SDS011;67543;45.494;9.100;2023-03-13T21:12:00;28.25;;;15.57;;
78290;SDS011;67543;45.494;9.100;2023-03-13T21:14:26;30.20;;;16.95;;
78290;SDS011;67543;45.494;9.100;2023-03-13T21:16:51;28.63;;;15.57;;
78290;SDS011;67543;45.494;9.100;2023-03-13T21:19:17;26.60;;;13.95;;
78290;SDS011;67543;45.494;9.100;2023-03-13T21:21:42;22.40;;;14.55;;
78290;SDS011;67543;45.494;9.100;2023-03-13T21:24:08;23.98;;;15.88;;
78290;SDS011;67543;45.494;9.100;2023-03-13T21:26:33;25.63;;;16.02;;
78290;SDS011;67543;45.494;9.100;2023-03-13T21:28:59;24.40;;;15.07;;
78290;SDS011;67543;45.494;9.100;2023-03-13T21:31:24;28.02;;;17.33;;
78290;SDS011;67543;45.494;9.100;2023-03-13T21:33:50;30.88;;;20.05;;
78290;SDS011;67543;45.494;9.100;2023-03-13T21:36:16;30.48;;;17.88;;
78290;SDS011;67543;45.494;9.100;2023-03-13T21:38:44;25.65;;;17.92;;
78290;SDS011;67543;45.494;9.100;2023-03-13T21:41:11;28.42;;;18.25;;
78290;SDS011;67543;45.494;9.100;2023-03-13T21:43:39;28.17;;;19.85;;
78290;SDS011;67543;45.494;9.100;2023-03-13T21:46:08;25.80;;;18.40;;
78290;SDS011;67543;45.494;9.100;2023-03-13T21:48:37;22.05;;;16.77;;
78290;SDS011;67543;45.494;9.100;2023-03-13T21:51:04;28.52;;;17.77;;
78290;SDS011;67543;45.494;9.100;2023-03-13T21:53:30;35.45;;;20.75;;
78290;SDS011;67543;45.494;9.100;2023-03-13T21:55:55;26.13;;;17.25;;
78290;SDS011;67543;45.494;9.100;2023-03-13T21:58:21;29.15;;;17.50;;
78290;SDS011;67543;45.494;9.100;2023-03-13T22:00:46;29.02;;;19.80;;
78290;SDS011;67543;45.494;9.100;2023-03-13T22:03:12;30.95;;;19.15;;
78290;SDS011;67543;45.494;9.100;2023-03-13T22:05:41;25.65;;;18.92;;
78290;SDS011;67543;45.494;9.100;2023-03-13T22:08:07;27.60;;;19.20;;
78290;SDS011;67543;45.494;9.100;2023-03-13T22:10:32;27.85;;;18.02;;
78290;SDS011;67543;45.494;9.100;2023-03-13T22:12:57;30.60;;;19.67;;
78290;SDS011;67543;45.494;9.100;2023-03-13T22:15:23;29.10;;;18.83;;
78290;SDS011;67543;45.494;9.100;2023-03-13T22:17:48;34.58;;;19.17;;
78290;SDS011;67543;45.494;9.100;2023-03-13T22:20:13;36.17;;;23.53;;
78290;SDS011;67543;45.494;9.100;2023-03-13T22:22:39;34.30;;;22.65;;
78290;SDS011;67543;45.494;9.100;2023-03-13T22:25:04;37.42;;;24.45;;
78290;SDS011;67543;45.494;9.100;2023-03-13T22:27:30;34.67;;;23.55;;
78290;SDS011;67543;45.494;9.100;2023-03-13T22:29:55;34.97;;;22.33;;
78290;SDS011;67543;45.494;9.100;2023-03-13T22:32:21;30.90;;;22.17;;
78290;SDS011;67543;45.494;9.100;2023-03-13T22:34:46;33.50;;;20.27;;
78290;SDS011;67543;45.494;9.100;2023-03-13T22:37:12;33.72;;;22.77;;
78290;SDS011;67543;45.494;9.100;2023-03-13T22:39:38;36.10;;;23.77;;
78290;SDS011;67543;45.494;9.100;2023-03-13T22:42:04;29.25;;;21.50;;
78290;SDS011;67543;45.494;9.100;2023-03-13T22:44:30;31.80;;;23.33;;
78290;SDS011;67543;45.494;9.100;2023-03-13T22:47:15;35.53;;;24.15;;
78290;SDS011;67543;45.494;9.100;2023-03-13T22:49:41;36.15;;;24.52;;
78290;SDS011;67543;45.494;9.100;2023-03-13T22:52:06;34.53;;;22.63;;
78290;SDS011;67543;45.494;9.100;2023-03-13T22:54:31;38.95;;;26.90;;
78290;SDS011;67543;45.494;9.100;2023-03-13T22:56:57;38.77;;;24.83;;
78290;SDS011;67543;45.494;9.100;2023-03-13T22:59:22;35.57;;;22.73;;
